Alma, WV (26320)

6:27 PM EST on March 01, 2015 (GMT -0500)
Kidwell, WV | Change Station
CLOSE
Current Station
Personal Weather Station
Location: Sistersville, WV
Elevation: 738 ft
Nearby Weather Stations

Elev 738 ft 39.54 °N, 80.89 °W | Updated 3 minutes ago

Overcast
Overcast
36.3 °F
Feels Like 36 °F
N
1.7
Wind Variable Wind from WSW

Today
High -- | Low -- °F
--% Chance of Precip.
Yesterday
High -- | Low -- °F
Precip. -- in
6:56 AM 6:15 PM
Waxing Gibbous, 88% visible
Pressure 30.24 in
Visibility 3.0 miles
Clouds Overcast 800 ft
Windchill 36 °F
Dew Point 36 °F
Humidity 99%
Rainfall 0.49 in
Snow Depth Not available.
UV 0 out of 12
Pollen .80 out of 12
Air Quality Not available.
Flu Activity Not available.
METAR KCKB 012253Z 23009KT 3SM -RA BR OVC008 04/04 A3022 RMK AO2 RAB2159 CIG 005V013 SLP238 P0001 T00440039

More Conditions Fewer Conditions

Pressure 30.24 in
Visibility 3.0 miles
Clouds Overcast 800 ft
Windchill 36 °F
Dew Point 36 °F
Humidity 99%
Rainfall 0.49 in
Snow Depth Not available.
UV 0 out of 12
Pollen .80 out of 12
Air Quality Not available.
Flu Activity Not available.
METAR KCKB 012253Z 23009KT 3SM -RA BR OVC008 04/04 A3022 RMK AO2 RAB2159 CIG 005V013 SLP238 P0001 T00440039

More Conditions Fewer Conditions

10-Day Weather Forecast

Almanac

Astronomy

Mar. 01, 2015 Rise Set
Actual Time
Civil Twilight
Nautical Twilight
Astronomical Twilight
Moon
Length of Visible Light
Length of Day
Tomorrow will be .
, % of the Moon is Illuminated

Today's Extremes

State Highs State Lows

Community

WunderPhotos

Upload Photos

1,801,605 photos uploaded!

WunderBlogs® & News

Nearby

Air Quality

  Air Quality AQ Index Pollutant
Not available.

Snow Depth

Station Depth Elevation

Earthquake Activity

City Distance Mag. Time & Date
Minimum magnitude displayed is 2.5.

Coastal Water Temperatures

Place Temperature

Nearby Weather Stations